Time;durP1;ratioP1;P1;durP2;ratioP2;P2;SDS_P1;SDS_P2;PMS_P1;PMS_P2;Temp;Humidity;BMP_temperature;BMP_pressure;BME280_temperature;BME280_humidity;BME280_pressure;Samples;Min_cycle;Max_cycle;Signal;HPM_P1;HPM_P2
2022/03/04 00:01:05;;;;;;;8.27;1.90;;;;;;;2.92;84.38;101473.97;4990019;28;20062;-55
2022/03/04 00:03:31;;;;;;;10.85;2.05;;;;;;;2.92;84.29;101468.84;4991029;28;20127;-55
2022/03/04 00:05:58;;;;;;;10.38;2.42;;;;;;;2.93;83.94;101468.00;4988638;28;20488;-54
2022/03/04 00:08:26;;;;;;;7.15;1.63;;;;;;;2.93;83.55;101464.59;4988775;28;20447;-54
2022/03/04 00:10:52;;;;;;;9.55;2.17;;;;;;;2.91;84.00;101472.22;4988998;28;20369;-53
2022/03/04 00:13:19;;;;;;;5.38;1.58;;;;;;;2.89;83.67;101472.97;4989078;28;20057;-56
2022/03/04 00:15:45;;;;;;;5.70;2.17;;;;;;;2.84;84.06;101460.03;4990927;28;20049;-54
2022/03/04 00:18:11;;;;;;;11.45;2.35;;;;;;;2.86;84.14;101468.63;4990985;28;20186;-55
2022/03/04 00:20:38;;;;;;;9.15;2.22;;;;;;;2.85;84.26;101466.88;4989241;28;20416;-56
2022/03/04 00:23:05;;;;;;;9.23;1.88;;;;;;;2.88;84.27;101463.56;4990031;28;20050;-54
2022/03/04 00:25:33;;;;;;;6.65;1.15;;;;;;;2.85;84.14;101462.63;4989617;28;20066;-55
2022/03/04 00:28:00;;;;;;;5.25;1.38;;;;;;;2.89;83.52;101466.16;4989725;28;20427;-54
2022/03/04 00:30:26;;;;;;;8.45;1.98;;;;;;;2.89;83.54;101466.16;4988075;28;20046;-51
2022/03/04 00:32:53;;;;;;;5.30;1.25;;;;;;;2.89;83.63;101458.50;4988744;28;20471;-54
2022/03/04 00:35:19;;;;;;;9.32;1.52;;;;;;;2.87;83.43;101462.69;4988885;28;20061;-53
2022/03/04 00:37:46;;;;;;;7.43;1.33;;;;;;;2.87;84.06;101469.50;4990126;28;20050;-55
2022/03/04 00:40:14;;;;;;;6.00;1.65;;;;;;;2.84;83.54;101466.00;4989240;28;20065;-53
2022/03/04 00:42:42;;;;;;;7.00;2.17;;;;;;;2.87;83.96;101467.81;4989982;28;20065;-53
2022/03/04 00:45:10;;;;;;;4.38;1.95;;;;;;;2.87;83.55;101464.38;4989230;28;20640;-54
2022/03/04 00:47:36;;;;;;;6.85;2.20;;;;;;;2.86;83.29;101466.06;4989664;28;20058;-56
2022/03/04 00:50:06;;;;;;;4.38;1.13;;;;;;;2.85;83.31;101472.00;4989931;28;20649;-54
2022/03/04 00:52:32;;;;;;;5.45;1.25;;;;;;;2.84;83.68;101458.34;4987315;28;20395;-50
2022/03/04 00:54:59;;;;;;;4.50;0.90;;;;;;;2.84;83.39;101470.25;4988563;28;20046;-54
2022/03/04 00:57:25;;;;;;;5.13;1.20;;;;;;;2.83;83.21;101469.41;4989677;28;20061;-54
2022/03/04 00:59:53;;;;;;;6.25;1.63;;;;;;;2.84;83.73;101470.25;4988711;28;20057;-55
2022/03/04 01:02:19;;;;;;;6.68;1.58;;;;;;;2.84;83.37;101471.13;4988197;28;20050;-54
2022/03/04 01:04:46;;;;;;;4.78;1.25;;;;;;;2.86;83.38;101471.19;4990135;28;20065;-55
2022/03/04 01:07:12;;;;;;;8.20;1.40;;;;;;;2.85;83.64;101472.88;4989936;28;20054;-54
2022/03/04 01:09:38;;;;;;;4.53;1.25;;;;;;;2.86;83.77;101463.50;4989365;28;20058;-55
2022/03/04 01:12:06;;;;;;;6.53;1.90;;;;;;;2.87;83.63;101465.25;4988214;28;20057;-55
2022/03/04 01:14:33;;;;;;;4.85;1.58;;;;;;;2.89;83.64;101461.06;4988492;28;20467;-55
2022/03/04 01:17:01;;;;;;;6.43;0.93;;;;;;;2.89;83.64;101462.75;4990080;28;20063;-53
2022/03/04 01:19:27;;;;;;;7.20;1.20;;;;;;;2.88;83.56;101461.88;4987179;28;20069;-52
2022/03/04 01:21:53;;;;;;;5.47;1.13;;;;;;;2.88;83.63;101459.31;4988979;28;20065;-55
2022/03/04 01:24:20;;;;;;;8.43;1.55;;;;;;;2.87;84.13;101464.38;4990029;28;20070;-55
2022/03/04 01:26:46;;;;;;;10.25;1.38;;;;;;;2.88;83.52;101467.00;4987646;28;20380;-53
2022/03/04 01:29:13;;;;;;;9.27;1.40;;;;;;;2.89;83.57;101471.28;4989221;28;20826;-54
2022/03/04 01:31:39;;;;;;;8.35;1.20;;;;;;;2.88;83.33;101461.88;4989440;28;20050;-54
2022/03/04 01:34:07;;;;;;;5.30;1.20;;;;;;;2.88;83.42;101469.56;4988737;28;20050;-54
2022/03/04 01:36:35;;;;;;;4.18;1.08;;;;;;;2.89;83.24;101458.50;4988479;28;20057;-53
2022/03/04 01:39:01;;;;;;;6.22;1.10;;;;;;;2.90;83.24;101465.34;4989841;28;20769;-53
2022/03/04 01:41:28;;;;;;;7.60;1.50;;;;;;;2.90;82.90;101470.47;4986241;28;20407;-54
2022/03/04 01:43:54;;;;;;;7.40;1.05;;;;;;;2.91;83.15;101467.09;4988579;28;20105;-55
2022/03/04 01:46:28;;;;;;;5.15;0.93;;;;;;;2.90;82.94;101472.16;4987047;28;20061;-54
2022/03/04 01:48:54;;;;;;;2.92;0.90;;;;;;;2.90;82.65;101474.72;4988541;28;20057;-53
2022/03/04 01:51:22;;;;;;;3.78;1.05;;;;;;;2.91;83.04;101463.66;4986710;28;20038;-53
2022/03/04 01:53:48;;;;;;;3.85;1.27;;;;;;;2.90;82.59;101467.91;4988414;28;20492;-54
2022/03/04 01:56:15;;;;;;;4.68;0.90;;;;;;;2.89;82.25;101463.59;4988536;28;20055;-54
2022/03/04 01:58:41;;;;;;;4.43;0.88;;;;;;;2.90;82.53;101462.78;4989211;28;20438;-54
2022/03/04 02:01:09;;;;;;;3.60;0.75;;;;;;;2.88;82.41;101461.88;4988822;28;20152;-55
2022/03/04 02:03:35;;;;;;;6.55;1.00;;;;;;;2.88;82.36;101467.00;4989746;28;20566;-51
2022/03/04 02:06:02;;;;;;;3.13;1.00;;;;;;;2.88;82.11;101466.13;4989607;28;20498;-55
2022/03/04 02:08:29;;;;;;;6.25;0.80;;;;;;;2.86;82.29;101463.50;4989125;28;20042;-56
2022/03/04 02:10:56;;;;;;;4.38;0.90;;;;;;;2.89;81.91;101467.84;4992539;28;20496;-54
2022/03/04 02:13:22;;;;;;;7.90;1.33;;;;;;;2.91;81.72;101461.97;4992569;28;20050;-54
2022/03/04 02:15:49;;;;;;;7.07;0.82;;;;;;;2.90;81.62;101455.09;4992891;28;20043;-54
2022/03/04 02:18:17;;;;;;;7.07;1.23;;;;;;;2.91;81.43;101461.97;4991791;28;20439;-54
2022/03/04 02:20:46;;;;;;;6.72;1.27;;;;;;;2.91;81.63;101459.41;4994616;28;20495;-54
2022/03/04 02:23:14;;;;;;;4.50;1.05;;;;;;;2.89;81.75;101462.75;4991144;28;20046;-55
2022/03/04 02:25:41;;;;;;;5.75;1.20;;;;;;;2.89;81.04;101460.19;4989735;28;20050;-55
2022/03/04 02:28:08;;;;;;;5.03;0.90;;;;;;;2.87;81.37;101465.25;4990316;28;20645;-57
2022/03/04 02:30:36;;;;;;;5.25;1.35;;;;;;;2.90;81.04;101464.47;4992064;28;20050;-55
2022/03/04 02:33:04;;;;;;;4.90;1.20;;;;;;;2.90;81.30;101470.47;4991146;28;20039;-56
2022/03/04 02:35:31;;;;;;;7.18;1.48;;;;;;;2.91;81.45;101466.22;4992318;28;20050;-55
2022/03/04 02:37:57;;;;;;;4.43;1.23;;;;;;;2.92;80.69;101468.84;4992561;28;20074;-55
2022/03/04 02:40:25;;;;;;;2.67;1.00;;;;;;;2.93;80.88;101457.78;4992305;28;20069;-55
2022/03/04 02:42:52;;;;;;;3.75;1.30;;;;;;;2.90;80.61;101469.59;4991793;28;20557;-56
2022/03/04 02:45:19;;;;;;;5.35;1.65;;;;;;;2.89;80.78;101463.59;4992847;28;20487;-53
2022/03/04 02:47:45;;;;;;;2.28;0.57;;;;;;;2.89;80.27;101458.50;4992167;28;20046;-55
2022/03/04 02:50:12;;;;;;;7.25;1.20;;;;;;;2.90;80.65;101465.34;4992080;28;20044;-54
2022/03/04 02:52:38;;;;;;;6.65;1.27;;;;;;;2.92;80.30;101481.63;4990277;28;20057;-55
2022/03/04 02:55:10;;;;;;;6.38;1.23;;;;;;;2.93;80.48;101480.81;4992545;28;20081;-54
2022/03/04 02:57:37;;;;;;;6.30;1.10;;;;;;;2.95;80.19;101481.75;4990517;28;20046;-56
2022/03/04 03:00:05;;;;;;;6.18;1.67;;;;;;;2.96;80.17;101480.94;4991276;28;20050;-56
2022/03/04 03:02:32;;;;;;;4.82;1.35;;;;;;;2.96;80.05;101475.81;4991231;28;20467;-55
2022/03/04 03:04:58;;;;;;;4.35;0.95;;;;;;;2.96;80.31;101486.06;4990947;28;20504;-55
2022/03/04 03:07:25;;;;;;;7.55;1.00;;;;;;;2.95;79.96;101479.19;4991780;28;20053;-53
2022/03/04 03:09:51;;;;;;;7.13;1.20;;;;;;;2.94;79.57;101480.00;4990651;28;20097;-55
2022/03/04 03:12:18;;;;;;;7.57;0.95;;;;;;;2.93;79.67;101478.25;4992082;28;20058;-55
2022/03/04 03:14:46;;;;;;;8.35;1.60;;;;;;;2.95;79.50;101488.56;4991452;28;20046;-53
2022/03/04 03:17:12;;;;;;;7.25;1.40;;;;;;;2.95;79.69;101491.13;4988749;28;20108;-55
2022/03/04 03:19:39;;;;;;;4.28;1.35;;;;;;;2.93;79.88;101485.94;4991682;28;20419;-54
2022/03/04 03:22:06;;;;;;;4.10;0.93;;;;;;;2.93;79.44;101483.38;4991441;28;20050;-56
2022/03/04 03:24:32;;;;;;;5.53;1.20;;;;;;;2.94;79.18;101497.94;4991085;28;20046;-55
2022/03/04 03:26:59;;;;;;;3.80;0.77;;;;;;;2.93;79.34;101496.19;4991131;28;20078;-54
2022/03/04 03:29:25;;;;;;;6.78;0.95;;;;;;;2.91;79.81;101502.94;4990333;28;20058;-53
2022/03/04 03:31:53;;;;;;;4.60;1.10;;;;;;;2.91;79.16;101497.81;4991495;28;20042;-57
2022/03/04 03:34:19;;;;;;;5.32;0.93;;;;;;;2.94;79.47;101503.06;4989680;28;20050;-56
2022/03/04 03:36:46;;;;;;;6.03;1.35;;;;;;;2.91;79.64;101502.94;4989800;28;20046;-56
2022/03/04 03:39:12;;;;;;;5.40;0.80;;;;;;;2.92;79.42;101504.69;4988170;28;20050;-54
2022/03/04 03:41:39;;;;;;;4.85;0.80;;;;;;;2.90;79.41;101506.31;4990694;28;20054;-55
2022/03/04 03:44:06;;;;;;;3.17;0.80;;;;;;;2.88;79.53;101507.97;4989963;28;20055;-56
2022/03/04 03:46:32;;;;;;;4.10;1.13;;;;;;;2.84;79.87;101503.56;4989863;28;20048;-54
2022/03/04 03:49:00;;;;;;;4.15;0.98;;;;;;;2.82;80.45;101502.63;4990702;28;20054;-55
2022/03/04 03:51:26;;;;;;;6.35;1.10;;;;;;;2.80;80.17;101509.38;4989848;28;20053;-53
2022/03/04 03:53:53;;;;;;;2.28;0.70;;;;;;;2.75;80.02;101505.78;4989073;28;20078;-55
2022/03/04 03:56:19;;;;;;;3.38;1.02;;;;;;;2.70;80.87;101507.31;4990257;28;20069;-56
2022/03/04 03:58:46;;;;;;;5.15;1.13;;;;;;;2.71;80.59;101509.06;4991368;28;20419;-56
2022/03/04 04:01:12;;;;;;;4.68;1.15;;;;;;;2.69;80.78;101503.03;4991014;28;20096;-54
2022/03/04 04:03:39;;;;;;;4.32;1.10;;;;;;;2.67;81.60;101507.22;4988825;28;20668;-56
2022/03/04 04:06:07;;;;;;;7.90;1.42;;;;;;;2.62;81.37;101503.63;4988479;28;20050;-57
2022/03/04 04:08:33;;;;;;;7.57;1.58;;;;;;;2.62;81.16;101508.75;4988737;28;20053;-56
2022/03/04 04:11:00;;;;;;;3.90;1.23;;;;;;;2.59;81.58;101503.47;4991384;28;20061;-54
2022/03/04 04:13:26;;;;;;;4.07;1.40;;;;;;;2.60;81.18;101510.34;4989077;28;20408;-56
2022/03/04 04:15:55;;;;;;;4.45;1.20;;;;;;;2.59;81.64;101508.59;4990479;28;20057;-55
2022/03/04 04:18:21;;;;;;;5.53;1.10;;;;;;;2.56;81.52;101504.25;4989733;28;20416;-53
2022/03/04 04:20:48;;;;;;;4.35;1.20;;;;;;;2.54;81.63;101505.88;4990368;28;20140;-55
2022/03/04 04:23:16;;;;;;;3.05;1.40;;;;;;;2.52;81.54;101502.38;4990016;28;20061;-56
2022/03/04 04:25:42;;;;;;;3.70;0.80;;;;;;;2.51;81.80;101509.19;4988469;28;20054;-56
2022/03/04 04:28:09;;;;;;;4.25;0.90;;;;;;;2.49;81.93;101513.38;4989462;28;20137;-55
2022/03/04 04:30:35;;;;;;;2.35;0.57;;;;;;;2.49;82.10;101512.50;4989842;28;20502;-52
2022/03/04 04:33:02;;;;;;;2.65;0.95;;;;;;;2.47;81.94;101511.59;4987223;28;20050;-54
2022/03/04 04:35:29;;;;;;;3.03;0.73;;;;;;;2.44;81.64;101507.22;4988453;28;20054;-55
2022/03/04 04:37:55;;;;;;;5.00;0.88;;;;;;;2.43;81.63;101513.16;4989061;28;20054;-56
2022/03/04 04:40:23;;;;;;;3.22;0.70;;;;;;;2.42;81.86;101510.53;4989688;28;20058;-56
2022/03/04 04:42:50;;;;;;;2.95;0.60;;;;;;;2.42;82.05;101515.66;4988884;28;20058;-56
2022/03/04 04:45:17;;;;;;;5.40;1.20;;;;;;;2.38;81.99;101519.78;4990233;28;20137;-55
2022/03/04 04:47:43;;;;;;;5.43;0.80;;;;;;;2.34;81.91;101520.50;4988868;28;20098;-54
2022/03/04 04:50:10;;;;;;;7.65;1.35;;;;;;;2.27;82.09;101523.66;4988077;28;20058;-55
2022/03/04 04:52:36;;;;;;;6.82;1.88;;;;;;;2.20;82.39;101522.53;4989071;28;20049;-55
2022/03/04 04:55:03;;;;;;;6.07;1.45;;;;;;;2.15;82.55;101520.63;4987235;28;20053;-55
2022/03/04 04:57:31;;;;;;;7.25;2.00;;;;;;;2.12;82.81;101525.63;4989391;28;20054;-56
2022/03/04 04:59:57;;;;;;;7.55;2.10;;;;;;;2.08;83.04;101516.06;4989682;28;20458;-55
2022/03/04 05:02:24;;;;;;;5.10;1.20;;;;;;;2.06;83.07;101525.34;4989314;28;20065;-56
2022/03/04 05:04:50;;;;;;;5.60;1.77;;;;;;;2.05;83.61;101516.81;4988946;28;20042;-56
2022/03/04 05:07:17;;;;;;;6.88;1.75;;;;;;;2.08;83.84;101524.63;4989579;28;20096;-55
2022/03/04 05:09:43;;;;;;;6.00;1.10;;;;;;;2.09;83.90;101515.28;4988976;28;20062;-54
2022/03/04 05:12:10;;;;;;;5.75;1.40;;;;;;;2.10;84.30;101519.59;4988701;28;20046;-56
2022/03/04 05:14:38;;;;;;;5.35;1.15;;;;;;;2.12;84.02;101520.50;4989425;28;20050;-54
2022/03/04 05:17:05;;;;;;;5.18;0.90;;;;;;;2.13;84.35;101523.13;4987535;28;20387;-55
2022/03/04 05:19:32;;;;;;;5.07;1.08;;;;;;;2.15;84.31;101523.19;4988122;28;20467;-55
2022/03/04 05:21:58;;;;;;;6.78;1.60;;;;;;;2.13;84.55;101527.38;4988944;28;20069;-54
2022/03/04 05:24:25;;;;;;;3.70;1.10;;;;;;;2.14;85.12;101524.00;4987525;28;20047;-55
2022/03/04 05:26:52;;;;;;;4.07;1.20;;;;;;;2.15;84.65;101525.75;4986026;28;20059;-54
2022/03/04 05:29:18;;;;;;;7.90;1.10;;;;;;;2.16;85.32;101535.16;4987784;28;20410;-53
2022/03/04 05:31:46;;;;;;;4.45;1.00;;;;;;;2.17;85.60;101529.22;4987891;28;20049;-56
2022/03/04 05:34:12;;;;;;;3.97;1.10;;;;;;;2.19;85.04;101553.19;4988618;28;20411;-55
2022/03/04 05:36:40;;;;;;;4.60;0.98;;;;;;;2.15;84.58;101546.22;4988016;28;20129;-55
2022/03/04 05:39:07;;;;;;;4.82;1.10;;;;;;;2.14;84.87;101547.03;4987975;28;20063;-52
2022/03/04 05:41:34;;;;;;;5.35;1.25;;;;;;;2.10;84.70;101540.03;4987771;28;20046;-54
2022/03/04 05:44:01;;;;;;;4.30;0.80;;;;;;;2.09;84.57;101548.53;4991366;28;20050;-57
2022/03/04 05:46:28;;;;;;;5.03;1.00;;;;;;;2.08;84.29;101551.88;4992674;28;20046;-57
2022/03/04 05:48:56;;;;;;;4.38;0.82;;;;;;;2.07;84.46;101552.69;4990561;28;20061;-56
2022/03/04 05:51:23;;;;;;;3.58;1.00;;;;;;;2.04;84.44;101547.44;4992371;28;20085;-55
2022/03/04 05:53:51;;;;;;;3.03;1.10;;;;;;;2.03;84.50;101555.94;4991099;28;20042;-54
2022/03/04 05:56:19;;;;;;;6.85;1.27;;;;;;;1.99;84.19;101564.28;4991925;28;20148;-56
2022/03/04 05:58:45;;;;;;;5.07;1.42;;;;;;;1.99;84.49;101554.06;4992205;28;20050;-57
2022/03/04 06:01:12;;;;;;;3.50;1.20;;;;;;;1.97;84.64;101559.13;4991393;28;20057;-56
2022/03/04 06:03:39;;;;;;;6.22;1.45;;;;;;;1.98;84.53;101572.78;4991114;28;20057;-57
2022/03/04 06:06:10;;;;;;;4.95;1.50;;;;;;;1.99;84.75;101574.53;4992640;28;20090;-55
2022/03/04 06:08:37;;;;;;;4.25;1.30;;;;;;;2.01;84.97;101572.91;4991086;28;20516;-56
2022/03/04 06:11:03;;;;;;;5.28;1.65;;;;;;;2.05;85.20;101580.75;4991143;28;20517;-55
2022/03/04 06:13:31;;;;;;;10.18;2.30;;;;;;;2.12;85.29;101584.44;4992083;28;20097;-59
2022/03/04 06:15:57;;;;;;;3.53;1.10;;;;;;;2.16;85.38;101576.97;4989606;28;20057;-59
2022/03/04 06:18:25;;;;;;;3.88;1.00;;;;;;;2.20;84.40;101589.06;4990800;28;20054;-56
2022/03/04 06:20:52;;;;;;;2.58;0.90;;;;;;;2.24;84.03;101587.47;4992138;28;20046;-56
2022/03/04 06:23:20;;;;;;;2.67;0.95;;;;;;;2.31;84.11;101589.47;4991848;28;20058;-55
2022/03/04 06:25:47;;;;;;;3.30;1.00;;;;;;;2.39;83.48;101594.88;4992223;28;20058;-54
2022/03/04 06:28:14;;;;;;;3.90;1.30;;;;;;;2.44;83.31;101591.69;4991590;28;20136;-54
2022/03/04 06:30:40;;;;;;;4.78;1.50;;;;;;;2.51;83.22;101587.66;4991492;28;20104;-56
2022/03/04 06:35:53;;;;;;;3.85;1.30;;;;;;;2.63;82.66;101597.50;4990431;28;20482;-55
2022/03/04 06:38:22;;;;;;;5.40;1.60;;;;;;;2.68;82.61;101601.13;4986049;28;20503;-53
2022/03/04 06:40:50;;;;;;;3.53;1.05;;;;;;;2.70;81.56;101599.47;4983619;28;20050;-55
2022/03/04 06:43:17;;;;;;;3.63;1.00;;;;;;;2.74;81.32;101602.22;4984279;28;20057;-54
2022/03/04 06:45:45;;;;;;;2.22;0.98;;;;;;;2.76;80.18;101600.59;4984443;28;20097;-56
2022/03/04 06:48:12;;;;;;;2.85;1.02;;;;;;;2.79;80.16;101615.19;4985255;28;20053;-59
2022/03/04 06:50:39;;;;;;;2.30;0.60;;;;;;;2.80;80.24;101601.56;4987372;28;20508;-54
2022/03/04 06:53:06;;;;;;;2.20;0.70;;;;;;;2.82;80.09;101611.03;4987985;28;20046;-56
2022/03/04 06:55:34;;;;;;;6.43;0.98;;;;;;;2.84;79.94;101619.66;4987961;28;20072;-57
2022/03/04 06:58:01;;;;;;;3.08;0.73;;;;;;;2.87;80.28;101618.91;4986365;28;20073;-56
2022/03/04 07:00:29;;;;;;;2.92;1.17;;;;;;;2.90;79.90;101619.00;4991283;28;20054;-54
2022/03/04 07:02:56;;;;;;;4.32;1.27;;;;;;;2.93;80.19;101618.25;4990684;28;20058;-56
2022/03/04 07:05:24;;;;;;;5.65;1.05;;;;;;;2.97;79.83;101620.09;4990490;28;20475;-55
2022/03/04 07:07:52;;;;;;;2.97;1.10;;;;;;;3.00;80.06;101625.34;4987210;28;20053;-56
2022/03/04 07:10:19;;;;;;;3.67;1.08;;;;;;;3.03;80.05;101628.00;4988530;28;20073;-56
2022/03/04 07:12:48;;;;;;;2.53;0.90;;;;;;;3.03;79.94;101631.44;4986172;28;20100;-56
2022/03/04 07:15:16;;;;;;;4.50;1.00;;;;;;;3.05;79.67;101632.38;4982791;28;20085;-56
2022/03/04 07:17:43;;;;;;;4.35;1.98;;;;;;;3.07;79.36;101638.41;4979884;28;20427;-50
2022/03/04 07:20:11;;;;;;;5.85;2.45;;;;;;;3.10;79.42;101633.41;4986073;28;20430;-49
2022/03/04 07:22:39;;;;;;;4.47;1.83;;;;;;;3.13;79.18;101648.91;4988272;28;20093;-53
2022/03/04 07:25:10;;;;;;;5.10;2.30;;;;;;;3.17;79.39;101657.59;4988098;28;20460;-49
2022/03/04 07:27:38;;;;;;;4.40;1.45;;;;;;;3.19;78.75;101652.53;4986756;28;20054;-53
2022/03/04 07:30:08;;;;;;;3.35;1.02;;;;;;;3.15;78.71;101654.97;4988771;28;20057;-51
2022/03/04 07:32:35;;;;;;;3.05;0.75;;;;;;;3.14;79.17;101660.91;4989154;28;20062;-55
2022/03/04 07:35:02;;;;;;;5.15;1.05;;;;;;;3.15;79.03;101662.66;4988094;28;20054;-59
2022/03/04 07:37:29;;;;;;;4.93;1.55;;;;;;;3.14;79.83;101666.03;4986289;28;20054;-59
2022/03/04 07:39:56;;;;;;;3.40;1.35;;;;;;;3.19;80.46;101652.53;4987501;28;20058;-59
2022/03/04 07:42:23;;;;;;;3.40;0.77;;;;;;;3.20;79.86;101669.63;4989869;28;20058;-60
2022/03/04 07:44:50;;;;;;;3.08;0.90;;;;;;;3.21;80.13;101672.25;4987808;28;20438;-64
2022/03/04 07:47:18;;;;;;;2.72;1.45;;;;;;;3.22;80.29;101678.25;4985436;28;20053;-58
2022/03/04 07:49:45;;;;;;;5.20;1.73;;;;;;;3.22;81.01;101674.00;4986225;28;20593;-54
2022/03/04 07:52:12;;;;;;;5.03;2.53;;;;;;;3.23;80.40;101683.44;4986658;28;20077;-60
2022/03/04 07:54:39;;;;;;;4.30;1.60;;;;;;;3.23;81.15;101691.13;4985763;28;20101;-62
2022/03/04 07:57:05;;;;;;;3.97;1.58;;;;;;;3.24;81.62;101692.00;4984992;28;20056;-57
2022/03/04 07:59:33;;;;;;;3.60;1.65;;;;;;;3.24;81.47;101686.88;4984423;28;20054;-59
2022/03/04 08:02:01;;;;;;;7.05;2.05;;;;;;;3.26;81.84;101680.09;4988769;28;20050;-58
2022/03/04 08:04:30;;;;;;;4.10;1.77;;;;;;;3.31;82.69;101686.25;4988311;28;20157;-57
2022/03/04 08:06:57;;;;;;;10.98;4.57;;;;;;;3.40;82.65;101689.16;4985376;28;20057;-58
2022/03/04 08:09:24;;;;;;;8.00;3.22;;;;;;;3.49;83.25;101689.47;4988417;28;20053;-58
2022/03/04 08:11:53;;;;;;;5.30;2.20;;;;;;;3.55;82.75;101687.13;4985426;28;20077;-54
2022/03/04 08:14:22;;;;;;;3.58;1.75;;;;;;;3.59;82.10;101691.53;4988111;28;20455;-53
2022/03/04 08:16:49;;;;;;;4.05;1.77;;;;;;;3.62;81.98;101690.78;4984760;28;20045;-61
2022/03/04 08:19:17;;;;;;;5.53;1.55;;;;;;;3.67;82.85;101690.16;4986392;28;20058;-62
2022/03/04 08:21:49;;;;;;;3.97;1.35;;;;;;;3.69;82.66;101701.34;4987261;28;20057;-61
2022/03/04 08:24:16;;;;;;;3.30;1.50;;;;;;;3.73;82.23;101695.50;4985407;28;20050;-59
2022/03/04 08:26:44;;;;;;;4.10;1.50;;;;;;;3.74;81.76;101697.22;4986236;28;20057;-60
2022/03/04 08:29:12;;;;;;;3.22;1.48;;;;;;;3.74;82.36;101709.19;4985330;28;20078;-63
2022/03/04 08:31:40;;;;;;;3.63;1.42;;;;;;;3.70;82.29;101702.22;4984449;28;20582;-60
2022/03/04 08:34:06;;;;;;;4.07;1.33;;;;;;;3.67;82.03;101710.66;4989545;28;20058;-59
2022/03/04 08:36:35;;;;;;;5.35;1.80;;;;;;;3.71;81.85;101709.94;4987708;28;20054;-60
2022/03/04 08:39:05;;;;;;;6.13;1.60;;;;;;;3.73;82.56;101710.88;4990319;28;20089;-63
2022/03/04 08:41:32;;;;;;;6.07;1.75;;;;;;;3.78;82.14;101718.72;4987202;28;20496;-66
2022/03/04 08:44:00;;;;;;;3.67;1.35;;;;;;;3.79;81.80;101717.91;4989687;28;20059;-59
2022/03/04 08:46:27;;;;;;;4.85;2.28;;;;;;;3.80;81.29;101712.81;4986792;28;20046;-61
2022/03/04 08:48:54;;;;;;;4.28;1.50;;;;;;;3.82;81.26;101729.97;4985982;28;20058;-63
2022/03/04 08:51:24;;;;;;;9.00;2.90;;;;;;;3.82;81.20;101732.53;4988223;28;20054;-60
2022/03/04 08:53:52;;;;;;;4.30;1.67;;;;;;;3.83;81.73;101731.72;4986108;28;20047;-61
2022/03/04 08:56:19;;;;;;;5.20;1.77;;;;;;;3.82;81.28;101735.09;4984594;28;20424;-62
2022/03/04 08:58:47;;;;;;;4.45;1.30;;;;;;;3.82;80.76;101735.09;4985970;28;20061;-62
2022/03/04 09:01:13;;;;;;;7.80;1.42;;;;;;;3.78;80.90;101745.25;4989242;28;20509;-52
2022/03/04 09:03:40;;;;;;;9.32;1.67;;;;;;;3.76;80.27;101736.63;4987751;28;20170;-62
2022/03/04 09:06:08;;;;;;;7.45;1.60;;;;;;;3.73;79.98;101756.16;4983514;28;20042;-59
2022/03/04 09:08:35;;;;;;;6.53;1.60;;;;;;;3.69;80.13;101760.31;4985326;28;20046;-56
2022/03/04 09:11:01;;;;;;;5.63;1.55;;;;;;;3.64;80.27;101761.84;4987832;28;20050;-55
2022/03/04 09:13:32;;;;;;;3.58;1.33;;;;;;;3.59;79.83;101763.34;4985402;28;20057;-58
2022/03/04 09:15:59;;;;;;;3.38;0.88;;;;;;;3.55;80.20;101758.03;4985651;28;20073;-57
2022/03/04 09:18:26;;;;;;;4.07;0.85;;;;;;;3.46;79.30;101763.72;4986771;28;20069;-59
2022/03/04 09:20:53;;;;;;;4.55;1.20;;;;;;;3.41;79.73;101765.22;4986175;28;20407;-61
2022/03/04 09:23:20;;;;;;;3.67;1.48;;;;;;;3.39;79.86;101779.69;4987498;28;20069;-59
2022/03/04 09:25:48;;;;;;;8.10;1.70;;;;;;;3.40;80.07;101772.03;4985133;28;20062;-59
2022/03/04 09:28:18;;;;;;;6.65;2.20;;;;;;;3.44;80.78;101783.28;4983886;28;20165;-59
2022/03/04 09:30:47;;;;;;;6.85;2.00;;;;;;;3.44;80.20;101773.03;4984171;28;20069;-60
2022/03/04 09:33:13;;;;;;;5.45;1.33;;;;;;;3.46;79.75;101776.53;4985608;28;20058;-57
2022/03/04 09:35:40;;;;;;;6.80;2.67;;;;;;;3.45;79.91;101779.91;4985077;28;20066;-58
2022/03/04 09:38:06;;;;;;;4.25;1.42;;;;;;;3.46;80.09;101781.66;4979125;28;20058;-59
2022/03/04 09:40:33;;;;;;;4.05;1.95;;;;;;;3.46;80.01;101781.66;4980307;28;20446;-58
2022/03/04 09:42:59;;;;;;;4.50;1.60;;;;;;;3.48;80.30;101785.16;4982518;28;20054;-58
2022/03/04 09:45:26;;;;;;;4.70;1.65;;;;;;;3.51;79.37;101784.38;4983444;28;20054;-60
2022/03/04 09:47:54;;;;;;;4.95;2.05;;;;;;;3.53;80.06;101785.31;4982657;28;20100;-53
2022/03/04 09:50:21;;;;;;;5.78;2.53;;;;;;;3.60;79.97;101789.84;4980248;28;20050;-60
2022/03/04 09:52:48;;;;;;;4.80;1.90;;;;;;;3.65;80.10;101784.09;4982302;28;20058;-58
2022/03/04 09:55:15;;;;;;;6.50;2.20;;;;;;;3.69;79.87;101785.97;4981729;28;20057;-57
2022/03/04 09:57:42;;;;;;;5.45;2.35;;;;;;;3.72;79.34;101796.31;4981036;28;20061;-56
2022/03/04 10:00:11;;;;;;;4.28;1.83;;;;;;;3.72;78.73;101791.19;4981832;28;20073;-55
2022/03/04 10:02:38;;;;;;;4.20;1.95;;;;;;;3.73;78.06;101797.19;4980931;28;20066;-58
2022/03/04 10:05:08;;;;;;;4.70;1.88;;;;;;;3.73;77.85;101798.06;4982880;28;20050;-59
2022/03/04 10:07:40;;;;;;;5.13;2.50;;;;;;;3.72;77.82;101791.19;4981570;28;20052;-53
2022/03/04 10:10:10;;;;;;;4.97;2.15;;;;;;;3.70;77.09;101792.84;4984011;28;20551;-57
2022/03/04 10:12:47;;;;;;;5.60;2.38;;;;;;;3.69;77.05;101798.78;4982476;28;20640;-56
2022/03/04 10:15:13;;;;;;;7.95;2.60;;;;;;;3.72;77.04;101793.75;4982095;28;20078;-59
2022/03/04 10:17:40;;;;;;;5.85;2.58;;;;;;;3.70;76.45;101791.97;4983212;28;20062;-56
2022/03/04 10:20:12;;;;;;;8.23;2.20;;;;;;;3.71;76.64;101794.56;4983068;28;21387;-56
2022/03/04 10:22:42;;;;;;;3.63;1.90;;;;;;;3.71;76.96;101784.31;4982683;28;20062;-52
2022/03/04 10:25:18;;;;;;;7.00;2.65;;;;;;;3.73;76.32;101787.81;4984637;28;20049;-49
2022/03/04 10:27:45;;;;;;;4.90;2.13;;;;;;;3.73;76.64;101792.94;4984852;28;20062;-57
2022/03/04 10:30:12;;;;;;;4.65;2.20;;;;;;;3.74;76.75;101789.56;4981615;28;20824;-50
2022/03/04 10:32:39;;;;;;;4.45;2.20;;;;;;;3.75;76.93;101796.44;4986578;28;20081;-50
2022/03/04 10:35:09;;;;;;;4.78;2.30;;;;;;;3.76;77.05;101793.03;4983478;28;20051;-61
2022/03/04 10:37:43;;;;;;;5.25;1.88;;;;;;;3.75;77.32;101786.19;4985134;28;20050;-55
2022/03/04 10:40:13;;;;;;;3.22;2.20;;;;;;;3.75;77.52;101795.56;4984964;28;20058;-53
2022/03/04 10:42:45;;;;;;;7.13;2.10;;;;;;;3.76;76.91;101785.34;4982239;28;20148;-54
2022/03/04 10:45:13;;;;;;;4.03;2.15;;;;;;;3.77;77.71;101781.09;4988888;28;20054;-54
2022/03/04 10:47:44;;;;;;;5.15;2.45;;;;;;;3.77;77.67;101781.97;4988114;28;20818;-58
2022/03/04 10:50:12;;;;;;;5.13;1.95;;;;;;;3.78;77.28;101796.53;4984465;28;20058;-52
2022/03/04 10:52:53;;;;;;;3.88;2.17;;;;;;;3.80;77.82;101783.78;4984131;28;20066;-54
2022/03/04 10:55:26;;;;;;;4.80;2.38;;;;;;;3.77;77.53;101787.09;4986474;28;20054;-60
2022/03/04 10:57:53;;;;;;;11.13;3.35;;;;;;;3.75;77.89;101790.44;4985849;28;20051;-55
2022/03/04 11:00:25;;;;;;;5.57;2.70;;;;;;;3.65;76.90;101794.34;4986790;28;20050;-54
2022/03/04 11:02:53;;;;;;;7.30;1.67;;;;;;;3.60;76.19;101795.84;4982998;28;20065;-53
2022/03/04 11:05:21;;;;;;;8.82;2.60;;;;;;;3.54;76.65;101795.63;4982214;28;20739;-58
2022/03/04 11:07:48;;;;;;;8.00;2.53;;;;;;;3.55;76.76;101792.25;4983509;28;20495;-62
2022/03/04 11:10:15;;;;;;;6.70;2.58;;;;;;;3.59;77.38;101799.22;4984637;28;20076;-61
2022/03/04 11:12:42;;;;;;;7.03;2.38;;;;;;;3.72;78.00;101798.88;4984068;28;20403;-59
2022/03/04 11:15:11;;;;;;;4.25;1.92;;;;;;;3.86;76.77;101789.13;4986653;28;20056;-57
2022/03/04 11:17:39;;;;;;;8.57;4.00;;;;;;;4.02;75.95;101790.53;4986521;28;20081;-59
2022/03/04 11:20:07;;;;;;;5.38;2.63;;;;;;;4.19;75.34;101794.56;4983064;28;20149;-59
2022/03/04 11:22:35;;;;;;;4.10;1.85;;;;;;;4.40;75.37;101797.84;4986545;28;20502;-59
2022/03/04 11:25:04;;;;;;;6.05;2.17;;;;;;;4.68;74.42;101798.75;4981988;28;22331;-59
2022/03/04 11:27:33;;;;;;;3.65;1.50;;;;;;;5.00;73.37;101790.41;4984128;28;20058;-59
2022/03/04 11:30:00;;;;;;;2.90;0.90;;;;;;;5.30;72.03;101794.75;4987776;28;20757;-60
2022/03/04 11:32:30;;;;;;;3.75;1.10;;;;;;;5.51;69.97;101787.66;4989286;28;20105;-59
2022/03/04 11:34:56;;;;;;;5.03;1.70;;;;;;;5.61;68.17;101781.06;4988075;28;20076;-57
2022/03/04 11:37:23;;;;;;;6.03;1.90;;;;;;;5.68;69.18;101788.13;4990133;28;20476;-58